createdAt,value
2023-04-26T00:00:14.525Z,6.85
2023-04-26T00:02:42.039Z,6.80
2023-04-26T00:05:10.766Z,6.86
2023-04-26T00:07:39.148Z,6.78
2023-04-26T00:10:07.649Z,6.76
2023-04-26T00:12:36.274Z,6.69
2023-04-26T00:15:04.236Z,6.68
2023-04-26T00:17:33.104Z,6.73
2023-04-26T00:20:01.385Z,6.60
2023-04-26T00:22:28.822Z,6.53
2023-04-26T00:24:56.255Z,5.96
2023-04-26T00:27:23.726Z,6.52
2023-04-26T00:29:51.184Z,6.21
2023-04-26T00:32:18.674Z,6.16
2023-04-26T00:34:47.522Z,6.26
2023-04-26T00:37:15.014Z,5.62
2023-04-26T00:39:42.430Z,5.61
2023-04-26T00:42:09.870Z,6.21
2023-04-26T00:44:39.910Z,6.27
2023-04-26T00:47:07.352Z,6.35
2023-04-26T00:49:35.234Z,5.96
2023-04-26T00:52:04.480Z,6.30
2023-04-26T00:54:32.001Z,6.37
2023-04-26T00:57:00.510Z,6.34
2023-04-26T00:59:28.054Z,6.35
2023-04-26T01:01:55.933Z,6.33
2023-04-26T01:04:26.201Z,6.39
2023-04-26T01:06:53.780Z,6.40
2023-04-26T01:09:23.208Z,6.32
2023-04-26T01:11:52.938Z,6.22
2023-04-26T01:14:20.571Z,6.19
2023-04-26T01:16:48.591Z,6.18
2023-04-26T01:19:16.443Z,6.05
2023-04-26T01:21:44.043Z,6.16
2023-04-26T01:24:14.015Z,6.19
2023-04-26T01:26:45.578Z,6.17
2023-04-26T01:29:17.337Z,5.84
2023-04-26T01:31:45.441Z,5.60
2023-04-26T01:34:12.968Z,5.95
2023-04-26T01:36:40.481Z,5.46
2023-04-26T01:39:09.092Z,5.95
2023-04-26T01:41:37.980Z,6.13
2023-04-26T01:44:05.903Z,5.81
2023-04-26T01:46:33.425Z,5.38
2023-04-26T01:49:01.023Z,5.14
2023-04-26T01:51:28.486Z,5.76
2023-04-26T01:53:56.072Z,4.22
2023-04-26T01:56:24.911Z,4.50
2023-04-26T01:58:55.436Z,4.82
2023-04-26T02:01:23.164Z,4.54
2023-04-26T02:03:51.174Z,5.32
2023-04-26T02:06:18.657Z,5.58
2023-04-26T02:08:46.309Z,5.31
2023-04-26T02:11:13.780Z,4.65
2023-04-26T02:13:41.299Z,3.56
2023-04-26T02:16:10.226Z,4.21
2023-04-26T02:18:37.770Z,4.61
2023-04-26T02:21:09.075Z,5.05
2023-04-26T02:23:36.512Z,4.85
2023-04-26T02:26:04.379Z,5.46
2023-04-26T02:28:32.054Z,4.49
2023-04-26T02:30:59.537Z,3.98
2023-04-26T02:33:28.340Z,4.87
2023-04-26T02:35:55.633Z,4.54
2023-04-26T02:38:23.229Z,5.08
2023-04-26T02:40:53.449Z,5.18
2023-04-26T02:43:20.898Z,4.80
2023-04-26T02:45:48.321Z,4.59
2023-04-26T02:48:15.791Z,4.70
2023-04-26T02:50:44.597Z,3.83
2023-04-26T02:53:12.479Z,5.02
2023-04-26T02:55:40.326Z,4.78
2023-04-26T02:58:07.790Z,5.21
2023-04-26T03:00:35.351Z,4.61
2023-04-26T03:03:03.125Z,5.04
2023-04-26T03:05:30.787Z,5.31
2023-04-26T03:07:59.609Z,5.26
2023-04-26T03:10:26.920Z,5.21
2023-04-26T03:12:54.401Z,5.32
2023-04-26T03:15:22.162Z,5.01
2023-04-26T03:17:49.775Z,5.25
2023-04-26T03:20:17.492Z,5.30
2023-04-26T03:22:44.918Z,5.30
2023-04-26T03:25:15.239Z,5.21
2023-04-26T03:27:42.794Z,5.26
2023-04-26T03:30:10.986Z,5.29
2023-04-26T03:32:38.482Z,5.28
2023-04-26T03:35:06.713Z,5.23
2023-04-26T03:37:34.166Z,5.24
2023-04-26T03:40:01.652Z,5.15
2023-04-26T03:42:30.625Z,5.24
2023-04-26T03:44:58.050Z,5.16
2023-04-26T03:47:25.681Z,5.06
2023-04-26T03:49:53.175Z,5.13
2023-04-26T03:52:20.781Z,5.12
2023-04-26T03:54:48.212Z,5.14
2023-04-26T03:57:15.724Z,4.99
2023-04-26T03:59:44.555Z,5.12
2023-04-26T04:02:11.883Z,5.01
2023-04-26T04:04:39.649Z,5.00
2023-04-26T04:07:07.489Z,4.94
2023-04-26T04:09:34.936Z,5.07
2023-04-26T04:12:02.943Z,5.08
2023-04-26T04:14:30.385Z,5.02
2023-04-26T04:16:59.574Z,4.98
2023-04-26T04:19:27.090Z,4.99
2023-04-26T04:21:54.526Z,4.93
2023-04-26T04:24:21.979Z,4.95
2023-04-26T04:26:49.418Z,4.91
2023-04-26T04:29:16.855Z,4.84
2023-04-26T04:31:44.418Z,4.83
2023-04-26T04:34:13.223Z,4.90
2023-04-26T04:36:40.655Z,4.83
2023-04-26T04:39:13.613Z,4.76
2023-04-26T04:41:47.572Z,4.76
2023-04-26T04:44:16.522Z,4.88
2023-04-26T04:46:44.304Z,4.92
2023-04-26T04:49:13.486Z,4.99
2023-04-26T04:51:40.947Z,5.14
2023-04-26T04:54:12.809Z,5.32
2023-04-26T04:56:40.611Z,5.54
2023-04-26T04:59:08.623Z,5.57
2023-04-26T05:01:36.955Z,5.59
2023-04-26T05:04:04.602Z,5.67
2023-04-26T05:06:33.670Z,5.94
2023-04-26T05:09:01.365Z,6.10
2023-04-26T05:11:28.836Z,6.04
2023-04-26T05:13:56.658Z,6.02
2023-04-26T05:16:24.343Z,5.24
2023-04-26T05:18:51.890Z,4.31
2023-04-26T05:21:19.298Z,4.44
2023-04-26T05:23:48.171Z,4.50
2023-04-26T05:26:16.665Z,4.78
2023-04-26T05:28:44.220Z,5.18
2023-04-26T05:31:12.828Z,5.49
2023-04-26T05:33:41.079Z,5.37
2023-04-26T05:36:09.446Z,5.80
2023-04-26T05:38:38.066Z,4.72
2023-04-26T05:41:06.916Z,5.29
2023-04-26T05:43:34.290Z,5.51
2023-04-26T05:46:02.058Z,5.26
2023-04-26T05:48:30.042Z,4.56
2023-04-26T05:50:57.492Z,4.97
2023-04-26T05:53:24.990Z,4.38
2023-04-26T05:55:52.535Z,4.73
2023-04-26T05:58:21.334Z,5.61
2023-04-26T06:00:48.690Z,4.52
2023-04-26T06:03:16.736Z,4.93
2023-04-26T06:05:44.478Z,4.50
2023-04-26T06:08:12.130Z,4.60
2023-04-26T06:10:39.610Z,5.07
2023-04-26T06:13:07.067Z,4.92
2023-04-26T06:15:35.869Z,5.30
2023-04-26T06:18:03.427Z,4.74
2023-04-26T06:20:30.888Z,4.93
2023-04-26T06:22:58.398Z,4.78
2023-04-26T06:25:25.859Z,4.62
2023-04-26T06:27:53.809Z,5.16
2023-04-26T06:30:21.251Z,5.03
2023-04-26T06:32:50.326Z,5.14
2023-04-26T06:35:18.119Z,5.34
2023-04-26T06:37:45.733Z,4.65
2023-04-26T06:40:15.770Z,4.92
2023-04-26T06:42:43.364Z,5.04
2023-04-26T06:45:12.400Z,5.23
2023-04-26T06:47:39.930Z,5.68
2023-04-26T06:50:10.697Z,5.59
2023-04-26T06:52:38.749Z,5.51
2023-04-26T06:55:07.080Z,5.83
2023-04-26T06:57:34.543Z,5.64
2023-04-26T07:00:02.880Z,6.11
2023-04-26T07:02:30.464Z,5.86
2023-04-26T07:04:58.528Z,5.64
2023-04-26T07:07:27.625Z,6.08
2023-04-26T07:09:55.158Z,5.86
2023-04-26T07:12:22.618Z,5.64
2023-04-26T07:14:50.107Z,5.97
2023-04-26T07:17:17.742Z,6.20
2023-04-26T07:19:45.190Z,5.82
2023-04-26T07:22:12.647Z,6.21
2023-04-26T07:24:41.435Z,6.18
2023-04-26T07:27:08.758Z,6.37
2023-04-26T07:29:36.159Z,6.60
2023-04-26T07:32:03.808Z,6.77
2023-04-26T07:34:31.459Z,6.81
2023-04-26T07:36:59.018Z,6.84
2023-04-26T07:39:26.903Z,6.63
2023-04-26T07:41:56.301Z,6.71
2023-04-26T07:44:23.740Z,6.98
2023-04-26T07:46:51.906Z,7.02
2023-04-26T07:49:19.411Z,6.78
2023-04-26T07:51:47.143Z,6.58
2023-04-26T07:54:14.618Z,6.61
2023-04-26T07:56:42.124Z,6.32
2023-04-26T07:59:10.954Z,6.48
2023-04-26T08:01:38.837Z,6.57
2023-04-26T08:04:06.791Z,6.94
2023-04-26T08:06:34.396Z,7.57
2023-04-26T08:09:01.840Z,7.31
2023-04-26T08:11:29.322Z,6.96
2023-04-26T08:13:56.907Z,7.18
2023-04-26T08:16:25.711Z,7.95
2023-04-26T08:18:53.064Z,7.46
2023-04-26T08:21:20.515Z,7.40
2023-04-26T08:23:48.107Z,8.17
2023-04-26T08:26:15.551Z,7.62
2023-04-26T08:28:43.002Z,8.04
2023-04-26T08:31:11.109Z,7.56
2023-04-26T08:33:39.944Z,7.33
2023-04-26T08:36:08.143Z,7.06
2023-04-26T08:38:36.604Z,6.97
2023-04-26T08:41:06.080Z,7.00
2023-04-26T08:43:36.713Z,7.59
2023-04-26T08:46:08.573Z,7.75
2023-04-26T08:48:38.413Z,7.64
2023-04-26T08:51:08.562Z,7.42
2023-04-26T08:53:36.842Z,7.75
2023-04-26T08:56:05.912Z,8.26
2023-04-26T08:58:33.453Z,8.21
2023-04-26T09:01:03.701Z,8.67
2023-04-26T09:03:32.231Z,8.16
2023-04-26T09:06:02.541Z,7.66
2023-04-26T09:08:36.087Z,8.60
2023-04-26T09:11:04.605Z,8.36
2023-04-26T09:13:32.068Z,7.67
2023-04-26T09:16:01.326Z,7.57
2023-04-26T09:18:31.207Z,7.62
2023-04-26T09:21:07.627Z,7.75
2023-04-26T09:23:36.561Z,8.07
2023-04-26T09:26:22.397Z,8.11
2023-04-26T09:28:50.227Z,8.32
2023-04-26T09:31:38.680Z,8.09
2023-04-26T09:34:06.404Z,8.67
2023-04-26T09:36:33.893Z,8.86
2023-04-26T09:39:03.865Z,8.82
2023-04-26T09:41:43.688Z,9.36
2023-04-26T09:44:23.205Z,9.13
2023-04-26T09:47:02.203Z,9.06
2023-04-26T09:49:32.843Z,9.10
2023-04-26T09:52:04.784Z,8.70
2023-04-26T09:54:45.620Z,9.08
2023-04-26T09:57:14.560Z,8.81
2023-04-26T09:59:43.820Z,8.83
2023-04-26T10:02:17.259Z,8.36
2023-04-26T10:04:50.018Z,8.23
2023-04-26T10:07:19.543Z,8.34
2023-04-26T10:09:49.276Z,8.92
2023-04-26T10:12:18.208Z,9.20
2023-04-26T10:14:46.765Z,9.39
2023-04-26T10:17:14.988Z,9.26
2023-04-26T10:19:44.911Z,9.00
2023-04-26T10:22:17.138Z,8.94
2023-04-26T10:24:45.104Z,9.74
2023-04-26T10:27:14.050Z,10.50
2023-04-26T10:30:07.401Z,9.68
2023-04-26T10:33:16.255Z,8.60
2023-04-26T10:36:07.389Z,9.05
2023-04-26T10:38:36.147Z,8.55
2023-04-26T10:41:23.744Z,8.67
2023-04-26T10:43:52.756Z,8.55
2023-04-26T10:46:40.655Z,8.31
2023-04-26T10:49:18.986Z,8.43
2023-04-26T10:52:12.771Z,8.71
2023-04-26T10:54:56.462Z,8.67
2023-04-26T10:57:25.675Z,8.62
2023-04-26T11:00:32.692Z,8.62
2023-04-26T11:03:04.750Z,8.92
2023-04-26T11:05:53.949Z,9.43
2023-04-26T11:08:25.454Z,9.80
2023-04-26T11:10:59.641Z,10.32
2023-04-26T11:13:27.222Z,9.58
2023-04-26T11:16:03.151Z,9.19
2023-04-26T11:18:31.218Z,9.60
2023-04-26T11:20:59.430Z,9.04
2023-04-26T11:23:29.140Z,9.02
2023-04-26T11:25:58.870Z,8.98
2023-04-26T11:28:26.438Z,8.99
2023-04-26T11:30:54.033Z,9.78
2023-04-26T11:33:23.514Z,9.66
2023-04-26T11:35:51.679Z,9.75
2023-04-26T11:38:22.604Z,9.72
2023-04-26T11:40:56.003Z,9.40
2023-04-26T11:43:23.555Z,9.65
2023-04-26T11:45:51.013Z,9.72
2023-04-26T11:48:20.091Z,10.29
2023-04-26T11:50:49.433Z,9.60
2023-04-26T11:53:17.309Z,10.27
2023-04-26T11:55:46.147Z,10.22
2023-04-26T11:58:14.848Z,10.05
2023-04-26T12:00:58.590Z,10.04
2023-04-26T12:03:31.162Z,9.68
2023-04-26T12:06:00.811Z,9.74
2023-04-26T12:08:28.880Z,9.13
2023-04-26T12:11:00.702Z,9.82
2023-04-26T12:13:29.328Z,10.48
2023-04-26T12:15:56.739Z,10.13
2023-04-26T12:18:31.248Z,9.53
2023-04-26T12:21:01.210Z,9.54
2023-04-26T12:23:28.761Z,10.01
2023-04-26T12:26:01.916Z,10.18
2023-04-26T12:28:29.443Z,9.95
2023-04-26T12:30:57.238Z,9.39
2023-04-26T12:33:25.289Z,9.29
2023-04-26T12:35:52.913Z,9.63
2023-04-26T12:38:21.950Z,9.45
2023-04-26T12:40:49.596Z,9.64
2023-04-26T12:43:17.552Z,9.80
2023-04-26T12:45:45.355Z,9.49
2023-04-26T12:48:13.021Z,9.64
2023-04-26T12:50:40.727Z,9.73
2023-04-26T12:53:08.173Z,9.66
2023-04-26T12:55:36.999Z,9.77
2023-04-26T12:58:04.459Z,10.19
2023-04-26T13:00:32.144Z,9.88
2023-04-26T13:02:59.750Z,10.47
2023-04-26T13:05:28.725Z,10.13
2023-04-26T13:08:00.324Z,9.92
2023-04-26T13:10:27.917Z,9.66
2023-04-26T13:12:57.760Z,10.18
2023-04-26T13:15:26.714Z,9.98
2023-04-26T13:17:54.720Z,10.86
2023-04-26T13:20:23.711Z,10.41
2023-04-26T13:22:53.084Z,10.41
2023-04-26T13:25:20.575Z,10.03
2023-04-26T13:27:48.127Z,9.54
2023-04-26T13:30:17.193Z,9.70
2023-04-26T13:32:44.754Z,9.50
2023-04-26T13:35:12.933Z,9.96
2023-04-26T13:37:40.539Z,9.91
2023-04-26T13:40:11.095Z,10.21
2023-04-26T13:42:38.633Z,10.95
2023-04-26T13:45:09.348Z,11.30
2023-04-26T13:47:38.484Z,11.45
2023-04-26T13:50:06.688Z,10.70
2023-04-26T13:52:34.452Z,10.83
2023-04-26T13:55:02.931Z,10.24
2023-04-26T13:57:30.339Z,10.15
2023-04-26T13:59:57.864Z,10.36
2023-04-26T14:02:25.650Z,10.12
2023-04-26T14:04:54.770Z,10.42
2023-04-26T14:07:22.296Z,10.50
2023-04-26T14:09:51.461Z,10.22
2023-04-26T14:12:18.936Z,10.28
2023-04-26T14:14:47.835Z,10.00
2023-04-26T14:17:15.341Z,9.88
2023-04-26T14:19:42.866Z,10.20
2023-04-26T14:22:17.379Z,10.21
2023-04-26T14:24:44.919Z,10.09
2023-04-26T14:27:12.804Z,10.36
2023-04-26T14:29:40.346Z,10.65
2023-04-26T14:32:08.192Z,10.59
2023-04-26T14:34:39.007Z,10.30
2023-04-26T14:37:06.896Z,10.72
2023-04-26T14:39:35.897Z,10.99
2023-04-26T14:42:03.985Z,10.93
2023-04-26T14:44:31.496Z,11.02
2023-04-26T14:46:58.979Z,10.92
2023-04-26T14:49:26.515Z,11.18
2023-04-26T14:51:54.040Z,11.27
2023-04-26T14:54:21.519Z,11.16
2023-04-26T14:56:51.275Z,11.01
2023-04-26T14:59:18.798Z,11.38
2023-04-26T15:01:46.295Z,11.09
2023-04-26T15:04:13.966Z,11.19
2023-04-26T15:06:41.703Z,10.89
2023-04-26T15:09:09.191Z,11.05
2023-04-26T15:11:36.641Z,11.11
2023-04-26T15:14:05.552Z,10.27
2023-04-26T15:16:33.344Z,10.88
2023-04-26T15:19:01.441Z,10.67
2023-04-26T15:21:29.520Z,10.62
2023-04-26T15:23:57.145Z,10.21
2023-04-26T15:26:25.824Z,10.75
2023-04-26T15:28:53.248Z,11.14
2023-04-26T15:31:22.410Z,10.98
2023-04-26T15:33:49.910Z,11.03
2023-04-26T15:36:19.726Z,10.82
2023-04-26T15:38:48.566Z,10.75
2023-04-26T15:41:16.318Z,10.84
2023-04-26T15:43:43.842Z,10.79
2023-04-26T15:46:14.092Z,11.04
2023-04-26T15:48:42.960Z,10.56
2023-04-26T15:51:10.396Z,10.51
2023-04-26T15:53:43.411Z,10.68
2023-04-26T15:56:14.928Z,10.63
2023-04-26T15:58:43.624Z,10.79
2023-04-26T16:01:11.139Z,10.56
2023-04-26T16:03:39.031Z,10.50
2023-04-26T16:06:09.352Z,10.15
2023-04-26T16:08:40.659Z,10.61
2023-04-26T16:11:08.766Z,10.31
2023-04-26T16:13:37.113Z,10.43
2023-04-26T16:16:07.812Z,10.56
2023-04-26T16:18:35.770Z,10.03
2023-04-26T16:21:09.497Z,10.02
2023-04-26T16:23:37.823Z,10.41
2023-04-26T16:26:05.877Z,10.24
2023-04-26T16:28:33.461Z,10.27
2023-04-26T16:31:01.102Z,10.27
2023-04-26T16:33:28.718Z,10.05
2023-04-26T16:35:56.604Z,10.16
2023-04-26T16:38:25.446Z,10.01
2023-04-26T16:40:57.676Z,9.82
2023-04-26T16:43:26.711Z,9.86
2023-04-26T16:46:01.698Z,9.90
2023-04-26T16:48:31.961Z,9.97
2023-04-26T16:50:59.491Z,9.85
2023-04-26T16:53:28.426Z,9.70
2023-04-26T16:55:56.032Z,9.54
2023-04-26T16:58:23.962Z,9.88
2023-04-26T17:00:51.800Z,9.83
2023-04-26T17:03:19.599Z,9.84
2023-04-26T17:05:49.141Z,9.99
2023-04-26T17:08:17.548Z,9.93
2023-04-26T17:10:47.493Z,9.96
2023-04-26T17:13:15.121Z,9.96
2023-04-26T17:15:43.620Z,9.96
2023-04-26T17:18:11.580Z,9.94
2023-04-26T17:20:39.089Z,9.84
2023-04-26T17:23:08.389Z,9.61
2023-04-26T17:25:36.081Z,9.61
2023-04-26T17:28:05.232Z,9.72
2023-04-26T17:30:32.745Z,9.60
2023-04-26T17:33:00.355Z,9.47
2023-04-26T17:35:28.221Z,9.37
2023-04-26T17:37:55.741Z,9.35
2023-04-26T17:40:23.191Z,9.48
2023-04-26T17:42:50.873Z,9.53
2023-04-26T17:45:19.853Z,9.34
2023-04-26T17:47:47.457Z,9.28
2023-04-26T17:50:15.543Z,9.32
2023-04-26T17:52:42.983Z,9.20
2023-04-26T17:55:10.622Z,9.43
2023-04-26T17:57:38.140Z,9.36
2023-04-26T18:00:09.105Z,9.55
2023-04-26T18:02:38.451Z,9.55
2023-04-26T18:05:08.343Z,9.34
2023-04-26T18:07:35.891Z,8.84
2023-04-26T18:10:03.949Z,8.87
2023-04-26T18:12:31.961Z,9.12
2023-04-26T18:14:59.549Z,8.79
2023-04-26T18:17:27.137Z,9.02
2023-04-26T18:19:56.292Z,9.40
2023-04-26T18:22:23.755Z,9.19
2023-04-26T18:24:51.196Z,9.61
2023-04-26T18:27:18.713Z,9.74
2023-04-26T18:29:46.231Z,9.75
2023-04-26T18:32:13.787Z,9.66
2023-04-26T18:34:41.262Z,9.69
2023-04-26T18:37:10.074Z,9.73
2023-04-26T18:39:37.576Z,9.72
2023-04-26T18:42:05.495Z,9.68
2023-04-26T18:44:33.165Z,9.67
2023-04-26T18:47:00.638Z,9.63
2023-04-26T18:49:28.360Z,9.61
2023-04-26T18:51:57.110Z,9.60
2023-04-26T18:54:26.230Z,9.55
2023-04-26T18:56:54.052Z,9.52
2023-04-26T18:59:21.554Z,9.48
2023-04-26T19:01:49.623Z,9.43
2023-04-26T19:04:17.266Z,9.44
2023-04-26T19:06:44.800Z,9.40
2023-04-26T19:09:13.984Z,9.36
2023-04-26T19:11:42.780Z,9.34
2023-04-26T19:14:10.357Z,9.28
2023-04-26T19:16:38.262Z,9.31
2023-04-26T19:19:06.003Z,9.25
2023-04-26T19:21:33.680Z,9.21
2023-04-26T19:24:01.182Z,9.24
2023-04-26T19:26:28.660Z,9.19
2023-04-26T19:28:57.466Z,9.14
2023-04-26T19:31:25.072Z,9.12
2023-04-26T19:33:52.634Z,9.05
2023-04-26T19:36:20.140Z,9.00
2023-04-26T19:38:48.314Z,8.94
2023-04-26T19:41:15.802Z,9.00
2023-04-26T19:43:43.281Z,8.94
2023-04-26T19:46:15.494Z,8.92
2023-04-26T19:48:43.302Z,8.89
2023-04-26T19:51:15.642Z,8.86
2023-04-26T19:53:43.248Z,8.84
2023-04-26T19:56:11.823Z,8.86
2023-04-26T19:58:39.659Z,8.72
2023-04-26T20:01:07.542Z,8.71
2023-04-26T20:03:38.038Z,8.64
2023-04-26T20:06:05.910Z,8.59
2023-04-26T20:08:33.444Z,8.63
2023-04-26T20:11:05.322Z,8.59
2023-04-26T20:13:33.189Z,8.47
2023-04-26T20:16:00.772Z,8.48
2023-04-26T20:18:28.287Z,8.44
2023-04-26T20:20:57.088Z,8.40
2023-04-26T20:23:24.569Z,8.35
2023-04-26T20:25:52.230Z,8.37
2023-04-26T20:28:19.854Z,8.39
2023-04-26T20:30:47.431Z,8.29
2023-04-26T20:33:14.969Z,8.32
2023-04-26T20:35:42.643Z,8.29
2023-04-26T20:38:11.631Z,8.36
2023-04-26T20:40:39.172Z,8.28
2023-04-26T20:43:06.850Z,8.21
2023-04-26T20:45:34.625Z,8.25
2023-04-26T20:48:02.120Z,8.25
2023-04-26T20:50:29.648Z,8.25
2023-04-26T20:52:57.183Z,8.25
2023-04-26T20:55:26.168Z,8.15
2023-04-26T20:57:53.654Z,8.09
2023-04-26T21:00:21.627Z,8.19
2023-04-26T21:02:49.211Z,8.18
2023-04-26T21:05:16.909Z,8.19
2023-04-26T21:07:44.358Z,8.21
2023-04-26T21:10:12.007Z,8.05
2023-04-26T21:12:41.659Z,8.09
2023-04-26T21:15:10.047Z,8.06
2023-04-26T21:17:37.587Z,8.00
2023-04-26T21:20:05.970Z,8.03
2023-04-26T21:22:33.678Z,7.91
2023-04-26T21:25:01.158Z,7.97
2023-04-26T21:27:28.628Z,7.96
2023-04-26T21:29:57.468Z,7.96
2023-04-26T21:32:25.214Z,7.95
2023-04-26T21:34:52.673Z,7.91
2023-04-26T21:37:20.196Z,7.93
2023-04-26T21:39:47.674Z,7.84
2023-04-26T21:42:15.534Z,7.85
2023-04-26T21:44:42.989Z,7.84
2023-04-26T21:47:11.841Z,7.68
2023-04-26T21:49:40.166Z,7.78
2023-04-26T21:52:07.694Z,7.79
2023-04-26T21:54:35.750Z,7.76
2023-04-26T21:57:04.910Z,7.71
2023-04-26T21:59:32.499Z,7.67
2023-04-26T22:02:00.273Z,7.56
2023-04-26T22:04:29.348Z,7.64
2023-04-26T22:06:57.101Z,7.54
2023-04-26T22:09:24.555Z,7.52
2023-04-26T22:11:51.980Z,7.49
2023-04-26T22:14:19.528Z,7.46
2023-04-26T22:16:47.057Z,7.47
2023-04-26T22:19:14.555Z,7.50
2023-04-26T22:21:43.382Z,7.41
2023-04-26T22:24:10.928Z,7.43
2023-04-26T22:26:38.455Z,7.39
2023-04-26T22:29:06.963Z,7.36
2023-04-26T22:31:34.463Z,7.34
2023-04-26T22:34:02.035Z,7.24
2023-04-26T22:36:29.506Z,7.25
2023-04-26T22:38:59.352Z,7.25
2023-04-26T22:41:26.984Z,7.25
2023-04-26T22:43:54.476Z,7.21
2023-04-26T22:46:21.998Z,7.14
2023-04-26T22:48:49.541Z,7.13
2023-04-26T22:51:17.004Z,7.10
2023-04-26T22:53:44.576Z,7.07
2023-04-26T22:56:13.440Z,7.15
2023-04-26T22:58:40.928Z,7.11
2023-04-26T23:01:08.431Z,7.04
2023-04-26T23:03:36.560Z,7.06
2023-04-26T23:06:04.623Z,5.89
2023-04-26T23:08:32.118Z,6.63
2023-04-26T23:10:59.568Z,6.93
2023-04-26T23:13:29.432Z,6.99
2023-04-26T23:15:56.954Z,7.02
2023-04-26T23:18:26.522Z,6.88
2023-04-26T23:20:53.999Z,6.82
2023-04-26T23:23:21.457Z,6.82
2023-04-26T23:25:48.994Z,6.78
2023-04-26T23:28:16.525Z,6.91
2023-04-26T23:30:45.482Z,6.81
2023-04-26T23:33:13.057Z,6.76
2023-04-26T23:35:42.168Z,6.79
2023-04-26T23:38:09.709Z,6.74
2023-04-26T23:40:37.848Z,6.70
2023-04-26T23:43:06.239Z,6.72
2023-04-26T23:45:33.848Z,6.71
2023-04-26T23:48:02.657Z,6.83
2023-04-26T23:50:30.160Z,6.73
2023-04-26T23:52:57.593Z,6.68
2023-04-26T23:55:25.026Z,6.68
2023-04-26T23:57:52.488Z,6.68
